Time;durP1;ratioP1;P1;durP2;ratioP2;P2;SDS_P1;SDS_P2;PMS_P1;PMS_P2;Temp;Humidity;BMP_temperature;BMP_pressure;BME280_temperature;BME280_humidity;BME280_pressure;Samples;Min_cycle;Max_cycle;Signal;HPM_P1;HPM_P2
2024/04/10 00:00:17;;;;;;;2.60;2.07;;;9.00;99.90;;;;;;4888559;29;20251;-79
2024/04/10 00:02:46;;;;;;;2.30;2.00;;;9.00;99.90;;;;;;4880464;29;20270;-78
2024/04/10 00:05:13;;;;;;;2.23;2.10;;;9.00;99.90;;;;;;4878660;29;20254;-78
2024/04/10 00:07:41;;;;;;;3.73;2.10;;;9.00;99.90;;;;;;4874375;29;20254;-77
2024/04/10 00:10:10;;;;;;;2.93;2.13;;;9.00;99.90;;;;;;4883449;29;20262;-77
2024/04/10 00:12:38;;;;;;;2.37;2.17;;;9.00;99.90;;;;;;4877729;29;20651;-78
2024/04/10 00:15:05;;;;;;;2.20;2.00;;;9.00;99.90;;;;;;4872300;29;20254;-78
2024/04/10 00:17:33;;;;;;;2.40;2.20;;;9.00;99.90;;;;;;4889132;29;20306;-77
2024/04/10 00:19:59;;;;;;;2.43;2.30;;;9.00;99.90;;;;;;4881780;29;20394;-78
2024/04/10 00:22:31;;;;;;;2.87;2.30;;;8.90;99.90;;;;;;4879593;29;20265;-78
2024/04/10 00:24:57;;;;;;;2.50;2.30;;;8.90;99.90;;;;;;4883840;29;20245;-78
2024/04/10 00:27:28;;;;;;;3.00;2.70;;;8.90;99.90;;;;;;4878377;29;20306;-77
2024/04/10 00:29:53;;;;;;;1.97;1.87;;;8.80;99.90;;;;;;4883687;29;20245;-77
2024/04/10 00:32:22;;;;;;;2.70;2.20;;;8.80;99.90;;;;;;4877639;29;20289;-77
2024/04/10 00:34:48;;;;;;;2.47;2.27;;;8.70;99.90;;;;;;4893429;29;20758;-77
2024/04/10 00:37:16;;;;;;;2.47;2.10;;;8.70;99.90;;;;;;4887780;29;20298;-77
2024/04/10 00:39:42;;;;;;;2.50;2.30;;;8.70;99.90;;;;;;4893217;29;20257;-77
2024/04/10 00:42:10;;;;;;;3.77;2.40;;;8.60;99.90;;;;;;4876548;29;20378;-77
2024/04/10 00:44:46;;;;;;;3.70;2.43;;;8.60;99.90;;;;;;4889135;29;20268;-77
2024/04/10 00:47:15;;;;;;;2.53;2.33;;;8.60;99.90;;;;;;4877823;29;20380;-78
2024/04/10 00:49:42;;;;;;;2.20;2.00;;;8.60;99.90;;;;;;4891214;29;20245;-78
2024/04/10 00:52:11;;;;;;;3.13;2.23;;;8.50;99.90;;;;;;4887047;29;20332;-77
2024/04/10 00:54:38;;;;;;;2.67;2.00;;;8.50;99.90;;;;;;4881418;29;20258;-78
2024/04/10 00:57:07;;;;;;;2.20;2.00;;;8.40;99.90;;;;;;4876638;29;20293;-77
2024/04/10 00:59:34;;;;;;;4.40;2.30;;;8.40;99.90;;;;;;4890465;29;20296;-77
2024/04/10 01:02:07;;;;;;;2.47;2.27;;;8.40;99.90;;;;;;4896713;29;20359;-77
2024/04/10 01:04:33;;;;;;;3.27;2.87;;;8.40;99.90;;;;;;4870586;29;20390;-77
2024/04/10 01:07:01;;;;;;;2.57;2.37;;;8.30;99.90;;;;;;4890385;29;20273;-77
2024/04/10 01:09:27;;;;;;;2.90;2.50;;;8.30;99.90;;;;;;4877124;29;20258;-77
2024/04/10 01:11:55;;;;;;;3.60;2.50;;;8.30;99.90;;;;;;4892143;29;20658;-77
2024/04/10 01:14:21;;;;;;;5.60;2.50;;;8.20;99.90;;;;;;4879817;29;20787;-77
2024/04/10 01:16:50;;;;;;;2.40;2.20;;;8.20;99.90;;;;;;4881181;29;20318;-77
2024/04/10 01:19:18;;;;;;;2.50;2.30;;;8.20;99.90;;;;;;4892375;29;20257;-77
2024/04/10 01:21:47;;;;;;;3.33;2.70;;;8.20;99.90;;;;;;4880966;29;20269;-77
2024/04/10 01:24:16;;;;;;;3.17;2.63;;;8.20;99.90;;;;;;4884216;29;20246;-77
2024/04/10 01:26:44;;;;;;;3.73;2.80;;;8.20;99.90;;;;;;4884073;29;20258;-77
2024/04/10 01:29:10;;;;;;;3.07;2.60;;;8.10;99.90;;;;;;4886891;29;20255;-78
2024/04/10 01:31:38;;;;;;;3.13;2.90;;;8.10;99.90;;;;;;4883168;29;20284;-77
2024/04/10 01:34:04;;;;;;;3.63;3.33;;;8.10;99.90;;;;;;4876166;29;20289;-78
2024/04/10 01:36:33;;;;;;;3.40;3.10;;;8.10;99.90;;;;;;4890288;29;20249;-77
2024/04/10 01:38:58;;;;;;;4.17;3.20;;;8.10;99.90;;;;;;4875769;29;20301;-77
2024/04/10 01:41:29;;;;;;;3.50;3.20;;;8.10;99.90;;;;;;4870490;29;20266;-77
2024/04/10 01:43:56;;;;;;;4.37;3.30;;;8.10;99.90;;;;;;4885973;29;20301;-77
2024/04/10 01:46:24;;;;;;;4.10;3.40;;;8.10;99.90;;;;;;4887776;29;20302;-77
2024/04/10 01:48:50;;;;;;;3.30;3.00;;;8.10;99.90;;;;;;4878828;29;20258;-77
2024/04/10 01:51:19;;;;;;;6.37;2.70;;;8.10;99.90;;;;;;4880053;29;20661;-77
2024/04/10 01:53:45;;;;;;;2.87;2.70;;;8.10;99.90;;;;;;4885194;29;20321;-78
2024/04/10 01:56:13;;;;;;;3.60;3.20;;;8.20;99.90;;;;;;4888103;29;20250;-78
2024/04/10 01:58:42;;;;;;;3.00;2.80;;;8.10;99.90;;;;;;4882778;29;20299;-78
2024/04/10 02:01:10;;;;;;;3.10;2.80;;;8.10;99.90;;;;;;4897163;29;20254;-77
2024/04/10 02:03:36;;;;;;;3.47;3.17;;;8.10;99.90;;;;;;4877220;29;20266;-78
2024/04/10 02:06:05;;;;;;;4.80;2.90;;;8.10;99.90;;;;;;4895067;29;20261;-78
2024/04/10 02:08:31;;;;;;;4.17;3.17;;;8.10;99.90;;;;;;4879939;29;20254;-78
2024/04/10 02:11:19;;;;;;;2.77;2.53;;;8.10;99.90;;;;;;4876079;29;20254;-77
2024/04/10 02:13:48;;;;;;;2.97;2.77;;;8.00;99.90;;;;;;4889320;29;20249;-77
2024/04/10 02:16:17;;;;;;;3.10;2.60;;;8.00;99.90;;;;;;4879827;29;20543;-78
2024/04/10 02:18:42;;;;;;;6.60;3.13;;;8.00;99.90;;;;;;4882031;29;20289;-78
2024/04/10 02:21:11;;;;;;;3.23;2.97;;;8.00;99.90;;;;;;4888449;29;20257;-78
2024/04/10 02:23:37;;;;;;;4.33;3.00;;;8.00;99.90;;;;;;4892621;29;20257;-78
2024/04/10 02:26:11;;;;;;;5.93;3.63;;;8.00;99.90;;;;;;4896037;29;20325;-78
2024/04/10 02:28:37;;;;;;;4.20;3.90;;;8.00;99.90;;;;;;4880379;29;20262;-78
2024/04/10 02:31:08;;;;;;;4.33;4.00;;;8.00;99.90;;;;;;4887043;29;20749;-78
2024/04/10 02:33:37;;;;;;;4.33;4.07;;;7.90;99.90;;;;;;4872946;29;20249;-77
2024/04/10 02:36:06;;;;;;;6.80;3.20;;;7.80;99.90;;;;;;4887286;29;20254;-78
2024/04/10 02:38:32;;;;;;;4.67;3.00;;;7.80;99.90;;;;;;4883974;29;20345;-77
2024/04/10 02:41:01;;;;;;;3.33;2.70;;;7.80;99.90;;;;;;4887542;29;20300;-80
2024/04/10 02:43:27;;;;;;;6.50;2.70;;;7.80;99.90;;;;;;4873257;29;20270;-77
2024/04/10 02:45:56;;;;;;;4.73;3.00;;;7.80;99.90;;;;;;4888007;29;20250;-78
2024/04/10 02:48:25;;;;;;;4.60;4.07;;;7.70;99.90;;;;;;4898793;29;20249;-77
2024/04/10 02:50:54;;;;;;;3.67;2.20;;;7.60;99.90;;;;;;4888071;29;20254;-77
2024/04/10 02:53:20;;;;;;;2.93;2.63;;;7.60;99.90;;;;;;4874302;29;20301;-77
2024/04/10 02:55:50;;;;;;;3.70;2.53;;;7.60;99.90;;;;;;4876517;29;20253;-79
2024/04/10 02:58:17;;;;;;;2.70;2.30;;;7.50;99.90;;;;;;4883496;29;20258;-79
2024/04/10 03:00:46;;;;;;;3.03;2.40;;;7.50;99.90;;;;;;4874864;29;20263;-81
2024/04/10 03:03:12;;;;;;;2.53;2.30;;;7.50;99.90;;;;;;4877075;29;20314;-80
2024/04/10 03:05:44;;;;;;;3.83;2.40;;;7.50;99.90;;;;;;4870128;29;20289;-80
2024/04/10 03:08:11;;;;;;;6.23;3.67;;;7.50;99.90;;;;;;4866894;29;20254;-80
2024/04/10 03:10:40;;;;;;;3.97;3.03;;;7.50;99.90;;;;;;4878405;29;20361;-79
2024/04/10 03:13:07;;;;;;;4.73;2.70;;;7.50;99.90;;;;;;4859229;29;20259;-80
2024/04/10 03:15:36;;;;;;;2.90;2.47;;;7.50;99.90;;;;;;4860548;29;20255;-79
2024/04/10 03:18:02;;;;;;;3.73;2.70;;;7.40;99.90;;;;;;4884982;29;20254;-80
2024/04/10 03:20:31;;;;;;;4.30;3.17;;;7.40;99.90;;;;;;4887953;29;20735;-78
2024/04/10 03:22:59;;;;;;;4.43;3.90;;;7.40;99.90;;;;;;4883602;29;20288;-80
2024/04/10 03:25:29;;;;;;;5.33;3.80;;;7.30;99.90;;;;;;4890434;29;20250;-79
2024/04/10 03:27:55;;;;;;;5.17;3.63;;;7.30;99.90;;;;;;4869528;29;20324;-80
2024/04/10 03:30:24;;;;;;;5.77;3.80;;;7.30;99.90;;;;;;4856523;29;20278;-76
2024/04/10 03:32:49;;;;;;;6.30;3.20;;;7.30;99.90;;;;;;4874176;29;20254;-76
2024/04/10 03:35:18;;;;;;;3.90;3.50;;;7.20;99.90;;;;;;4887434;29;20257;-75
2024/04/10 03:37:45;;;;;;;4.30;3.60;;;7.10;99.90;;;;;;4880644;29;20250;-76
2024/04/10 03:40:16;;;;;;;4.60;3.50;;;7.00;99.90;;;;;;4892969;29;20253;-77
2024/04/10 03:42:45;;;;;;;4.30;4.00;;;6.90;99.90;;;;;;4885198;29;20293;-76
2024/04/10 03:45:14;;;;;;;4.93;4.53;;;6.80;99.90;;;;;;4869482;29;20289;-76
2024/04/10 03:47:43;;;;;;;4.83;4.40;;;6.70;99.90;;;;;;4872911;29;20268;-76
2024/04/10 03:50:12;;;;;;;4.57;4.17;;;6.60;99.90;;;;;;4893033;29;20284;-76
2024/04/10 03:52:40;;;;;;;5.63;4.00;;;6.60;99.90;;;;;;4882685;29;20389;-79
2024/04/10 03:55:06;;;;;;;4.73;4.07;;;6.70;99.90;;;;;;4868623;29;20254;-77
2024/04/10 03:57:37;;;;;;;5.97;4.70;;;6.70;99.90;;;;;;4878712;29;20821;-76
2024/04/10 04:00:05;;;;;;;5.00;4.60;;;6.70;99.90;;;;;;4882417;29;20254;-75
2024/04/10 04:02:44;;;;;;;6.30;4.90;;;6.70;99.90;;;;;;4885662;29;20249;-76
2024/04/10 04:05:10;;;;;;;6.50;4.30;;;6.70;99.90;;;;;;4881206;29;20261;-75
2024/04/10 04:07:39;;;;;;;6.53;4.60;;;6.70;99.90;;;;;;4868615;29;20281;-77
2024/04/10 04:10:06;;;;;;;6.20;4.50;;;6.70;99.90;;;;;;4886482;29;20391;-77
2024/04/10 04:12:37;;;;;;;5.97;4.47;;;6.60;99.90;;;;;;4869784;29;20309;-76
2024/04/10 04:15:03;;;;;;;5.87;4.63;;;6.70;99.90;;;;;;4875383;29;20328;-76
2024/04/10 04:17:31;;;;;;;6.67;4.87;;;6.70;99.90;;;;;;4882898;29;20363;-77
2024/04/10 04:19:57;;;;;;;5.30;4.37;;;6.60;99.90;;;;;;4895779;29;20257;-76
2024/04/10 04:22:26;;;;;;;6.70;4.70;;;6.50;99.90;;;;;;4876092;29;20258;-77
2024/04/10 04:24:52;;;;;;;4.80;4.40;;;6.40;99.90;;;;;;4898259;29;20645;-76
2024/04/10 04:27:22;;;;;;;4.83;4.53;;;6.40;99.90;;;;;;4869569;29;20260;-77
2024/04/10 04:29:51;;;;;;;5.73;5.27;;;6.40;99.90;;;;;;4875867;29;20253;-77
2024/04/10 04:32:19;;;;;;;5.50;5.03;;;6.30;99.90;;;;;;4884151;29;20266;-77
2024/04/10 04:34:45;;;;;;;5.40;5.07;;;6.30;99.90;;;;;;4888317;29;20284;-76
2024/04/10 04:37:15;;;;;;;6.40;4.93;;;6.20;99.90;;;;;;4890324;29;20644;-77
2024/04/10 04:39:41;;;;;;;7.03;5.77;;;6.20;99.90;;;;;;4889838;29;20592;-76
2024/04/10 04:42:09;;;;;;;9.10;5.93;;;6.30;99.90;;;;;;4886457;29;20261;-77
2024/04/10 04:44:37;;;;;;;5.90;5.40;;;6.40;99.90;;;;;;4883953;29;20261;-77
2024/04/10 04:47:09;;;;;;;6.40;5.73;;;6.30;99.90;;;;;;4888593;29;20299;-77
2024/04/10 04:49:35;;;;;;;6.27;5.67;;;6.40;99.90;;;;;;4886040;29;20726;-76
2024/04/10 04:52:04;;;;;;;5.80;5.20;;;6.30;99.90;;;;;;4869287;29;20325;-77
2024/04/10 04:54:30;;;;;;;6.13;5.27;;;6.40;99.90;;;;;;4889298;29;20293;-77
2024/04/10 04:56:59;;;;;;;10.47;6.00;;;6.50;99.90;;;;;;4873550;29;20606;-77
2024/04/10 04:59:25;;;;;;;6.50;5.30;;;6.60;99.90;;;;;;4881185;29;20803;-76
2024/04/10 05:01:53;;;;;;;6.87;5.30;;;6.70;99.90;;;;;;4885252;29;20327;-76
2024/04/10 05:07:20;;;;;;;5.97;5.37;;;6.80;99.90;;;;;;4811448;29;20269;-77
2024/04/10 05:09:50;;;;;;;5.60;5.10;;;6.90;99.90;;;;;;4865327;29;20253;-76
2024/04/10 05:12:16;;;;;;;6.10;5.50;;;6.90;99.90;;;;;;4894761;29;20256;-77
2024/04/10 05:14:50;;;;;;;5.50;5.00;;;7.00;99.90;;;;;;4884052;29;20281;-77
2024/04/10 05:17:16;;;;;;;5.70;5.00;;;7.10;99.90;;;;;;4879113;29;20300;-76
2024/04/10 05:19:47;;;;;;;5.27;4.87;;;7.10;99.90;;;;;;4887222;29;20261;-76
2024/04/10 05:22:13;;;;;;;5.70;4.37;;;7.30;99.90;;;;;;4890547;29;20253;-77
2024/04/10 05:24:42;;;;;;;4.83;4.37;;;7.30;99.90;;;;;;4880922;29;20367;-77
2024/04/10 05:27:09;;;;;;;5.53;4.50;;;7.40;99.90;;;;;;4881859;29;20752;-77
2024/04/10 05:29:38;;;;;;;4.83;4.43;;;7.50;99.90;;;;;;4891823;29;20321;-77
2024/04/10 05:32:04;;;;;;;5.03;3.90;;;7.60;99.90;;;;;;4880423;29;20658;-77
2024/04/10 05:34:32;;;;;;;6.73;6.23;;;7.70;99.90;;;;;;4881299;29;20246;-77
2024/04/10 05:37:01;;;;;;;7.60;7.00;;;7.80;99.90;;;;;;4872484;29;20886;-76
2024/04/10 05:39:30;;;;;;;6.80;6.10;;;8.00;99.90;;;;;;4877408;29;20755;-76
2024/04/10 05:41:55;;;;;;;7.10;6.23;;;8.10;99.90;;;;;;4889439;29;20762;-76
2024/04/10 05:44:24;;;;;;;7.37;6.60;;;8.20;99.90;;;;;;4888562;29;20302;-76
2024/04/10 05:46:50;;;;;;;7.30;6.70;;;8.20;99.90;;;;;;4882697;29;20285;-76
2024/04/10 05:49:18;;;;;;;8.27;7.20;;;8.20;99.90;;;;;;4890003;29;20258;-76
2024/04/10 05:51:44;;;;;;;7.10;6.50;;;8.20;99.90;;;;;;4888672;29;20249;-76
2024/04/10 05:54:15;;;;;;;5.90;5.30;;;8.30;99.90;;;;;;4880575;29;20300;-77
2024/04/10 05:56:41;;;;;;;5.53;4.67;;;8.30;99.90;;;;;;4890235;29;20254;-77
2024/04/10 05:59:09;;;;;;;2.83;2.53;;;8.30;99.90;;;;;;4874625;29;20304;-77
2024/04/10 06:01:35;;;;;;;3.23;2.90;;;8.40;99.90;;;;;;4891933;29;20926;-77
2024/04/10 06:04:04;;;;;;;5.63;3.33;;;8.40;99.90;;;;;;4880608;29;20258;-78
2024/04/10 06:06:29;;;;;;;5.70;3.07;;;8.40;99.90;;;;;;4895652;29;20255;-78
2024/04/10 06:08:58;;;;;;;7.80;3.10;;;8.50;99.90;;;;;;4861926;29;20276;-78
2024/04/10 06:11:27;;;;;;;4.90;2.60;;;8.50;99.90;;;;;;4873799;29;20319;-78
2024/04/10 06:13:57;;;;;;;6.30;3.20;;;8.60;99.90;;;;;;4874129;29;20250;-78
2024/04/10 06:16:23;;;;;;;5.03;3.00;;;8.70;99.90;;;;;;4878614;29;20258;-79
2024/04/10 06:18:52;;;;;;;5.30;4.03;;;8.70;99.90;;;;;;4876819;29;20752;-79
2024/04/10 06:21:18;;;;;;;7.60;5.23;;;8.80;99.90;;;;;;4882530;29;20750;-79
2024/04/10 06:23:47;;;;;;;5.07;4.67;;;8.80;99.90;;;;;;4877406;29;20323;-79
2024/04/10 06:26:13;;;;;;;6.23;5.47;;;8.80;99.90;;;;;;4872521;29;20281;-79
2024/04/10 06:28:44;;;;;;;6.17;5.40;;;8.80;99.90;;;;;;4885895;29;20249;-79
2024/04/10 06:31:09;;;;;;;5.43;5.00;;;8.80;99.90;;;;;;4872971;29;20649;-79
2024/04/10 06:33:38;;;;;;;5.37;4.50;;;8.90;99.90;;;;;;4892689;29;20257;-79
2024/04/10 06:36:04;;;;;;;6.23;5.00;;;9.00;99.90;;;;;;4880092;29;20594;-78
2024/04/10 06:38:33;;;;;;;5.57;4.60;;;9.00;99.90;;;;;;4887465;29;20289;-78
2024/04/10 06:41:00;;;;;;;4.93;4.53;;;9.10;99.90;;;;;;4878560;29;20254;-79
2024/04/10 06:43:29;;;;;;;4.57;3.47;;;9.10;99.90;;;;;;4876409;29;20267;-78
2024/04/10 06:45:59;;;;;;;4.20;3.80;;;9.30;99.90;;;;;;4882504;29;20286;-78
2024/04/10 06:48:28;;;;;;;5.70;3.03;;;9.40;99.90;;;;;;4885271;29;20297;-79
2024/04/10 06:50:56;;;;;;;5.37;2.60;;;9.30;99.90;;;;;;4868764;29;20248;-79
2024/04/10 06:53:24;;;;;;;3.80;2.93;;;9.40;99.90;;;;;;4866963;29;20626;-78
2024/04/10 06:55:55;;;;;;;4.50;2.80;;;9.60;99.90;;;;;;4872455;29;20272;-78
2024/04/10 06:58:23;;;;;;;3.17;2.47;;;9.70;99.90;;;;;;4882378;29;20796;-79
2024/04/10 07:01:00;;;;;;;5.13;2.73;;;9.70;99.90;;;;;;4883944;29;20745;-78
2024/04/10 07:03:29;;;;;;;2.77;2.30;;;9.80;99.90;;;;;;4880501;29;20299;-79
2024/04/10 07:06:03;;;;;;;3.33;2.37;;;9.80;99.90;;;;;;4871921;29;20623;-79
2024/04/10 07:08:31;;;;;;;4.73;3.13;;;9.90;99.90;;;;;;4897670;29;20327;-79
2024/04/10 07:10:57;;;;;;;3.67;2.73;;;9.90;99.90;;;;;;4889309;29;20295;-79
2024/04/10 07:13:26;;;;;;;4.83;2.80;;;10.00;99.90;;;;;;4883886;29;20255;-79
2024/04/10 07:16:02;;;;;;;3.93;3.17;;;10.10;99.90;;;;;;4874581;29;20295;-79
2024/04/10 07:18:31;;;;;;;5.57;3.00;;;10.10;99.90;;;;;;4872580;29;20899;-79
2024/04/10 07:20:59;;;;;;;5.60;3.50;;;10.20;99.90;;;;;;4896261;29;20286;-79
2024/04/10 07:23:27;;;;;;;5.37;4.87;;;10.20;99.90;;;;;;4884565;29;20329;-79
2024/04/10 07:25:53;;;;;;;5.63;3.60;;;10.30;99.90;;;;;;4887604;29;20777;-78
2024/04/10 07:28:22;;;;;;;4.80;3.10;;;10.40;99.90;;;;;;4888022;29;20263;-78
2024/04/10 07:30:48;;;;;;;8.23;4.90;;;10.40;99.90;;;;;;4874516;29;20276;-78
2024/04/10 07:33:20;;;;;;;6.00;4.87;;;10.50;99.90;;;;;;4892530;29;20260;-78
2024/04/10 07:35:46;;;;;;;5.20;4.67;;;10.60;99.90;;;;;;4899847;29;20813;-78
2024/04/10 07:38:15;;;;;;;3.93;2.80;;;10.70;99.90;;;;;;4884747;29;20277;-79
2024/04/10 07:40:51;;;;;;;6.20;4.60;;;10.80;99.90;;;;;;4874090;29;20731;-79
2024/04/10 07:43:19;;;;;;;4.13;2.40;;;10.90;99.90;;;;;;4872110;29;20352;-79
2024/04/10 07:45:45;;;;;;;3.27;2.20;;;11.00;99.90;;;;;;4875146;29;20255;-79
2024/04/10 07:48:14;;;;;;;5.63;3.70;;;11.10;99.90;;;;;;4878752;29;20795;-80
2024/04/10 07:50:42;;;;;;;4.87;2.80;;;11.20;99.90;;;;;;4871252;29;20293;-80
2024/04/10 07:53:10;;;;;;;5.83;2.67;;;11.40;99.90;;;;;;4865773;29;20304;-80
2024/04/10 07:55:36;;;;;;;5.60;2.33;;;11.50;99.90;;;;;;4872406;29;20250;-81
2024/04/10 07:58:05;;;;;;;3.23;2.50;;;11.50;99.90;;;;;;4869555;29;20310;-81
2024/04/10 08:00:31;;;;;;;7.17;2.67;;;11.70;99.90;;;;;;4866847;29;20750;-80
2024/04/10 08:02:59;;;;;;;7.73;3.03;;;11.70;99.90;;;;;;4873258;29;20327;-79
2024/04/10 08:05:25;;;;;;;7.33;2.90;;;11.90;99.90;;;;;;4868626;29;20795;-81
2024/04/10 08:07:56;;;;;;;4.87;2.50;;;12.00;99.90;;;;;;4873907;29;20262;-80
2024/04/10 08:10:22;;;;;;;6.13;2.73;;;12.20;99.90;;;;;;4884085;29;20638;-81
2024/04/10 08:12:54;;;;;;;7.47;2.90;;;12.50;99.90;;;;;;4884864;29;20295;-80
2024/04/10 08:15:21;;;;;;;6.33;3.30;;;12.50;99.90;;;;;;4875081;29;20248;-80
2024/04/10 08:17:49;;;;;;;5.53;2.70;;;12.50;99.90;;;;;;4879665;29;20273;-80
2024/04/10 08:20:16;;;;;;;5.63;2.50;;;12.50;99.90;;;;;;4868192;29;20595;-84
2024/04/10 08:22:45;;;;;;;6.13;2.40;;;12.50;99.90;;;;;;4870837;29;20261;-84
2024/04/10 08:25:13;;;;;;;6.50;2.90;;;12.50;99.90;;;;;;4868303;29;20780;-84
2024/04/10 08:27:42;;;;;;;6.00;2.43;;;12.50;99.90;;;;;;4876530;29;20289;-86
2024/04/10 08:30:08;;;;;;;6.97;2.77;;;12.40;99.90;;;;;;4886691;29;20253;-85
2024/04/10 08:32:37;;;;;;;8.47;2.83;;;12.50;99.90;;;;;;4866894;29;20709;-83
2024/04/10 08:35:07;;;;;;;6.40;2.77;;;12.60;99.90;;;;;;4875892;29;20374;-85
2024/04/10 08:37:48;;;;;;;6.47;2.53;;;12.60;99.90;;;;;;4868207;29;20738;-84
2024/04/10 08:40:23;;;;;;;9.20;3.37;;;12.70;99.90;;;;;;4885506;29;20269;-85
2024/04/10 08:42:53;;;;;;;5.83;4.10;;;12.80;99.90;;;;;;4867313;29;20316;-81
2024/04/10 08:45:23;;;;;;;5.43;3.03;;;13.00;99.90;;;;;;4871628;29;20254;-80
2024/04/10 08:47:52;;;;;;;6.03;2.73;;;13.30;99.90;;;;;;4869775;29;20631;-84
2024/04/10 08:50:18;;;;;;;3.93;2.27;;;13.40;99.90;;;;;;4875068;29;20264;-84
2024/04/10 08:52:48;;;;;;;4.63;2.43;;;13.70;99.90;;;;;;4871429;29;20261;-85
2024/04/10 08:55:14;;;;;;;4.70;2.63;;;14.20;99.90;;;;;;4874780;29;20283;-85
2024/04/10 08:57:45;;;;;;;5.33;2.50;;;14.30;99.90;;;;;;4863812;29;20252;-84
2024/04/10 09:00:11;;;;;;;4.93;2.20;;;14.50;99.90;;;;;;4882091;29;20253;-85
2024/04/10 09:02:40;;;;;;;6.00;2.33;;;14.70;99.90;;;;;;4875628;29;20761;-85
2024/04/10 09:05:08;;;;;;;7.70;2.47;;;15.40;99.90;;;;;;4862973;29;20307;-83
2024/04/10 09:07:51;;;;;;;6.63;3.03;;;15.90;99.90;;;;;;4869377;29;20300;-85
2024/04/10 09:10:52;;;;;;;5.23;2.80;;;15.60;99.90;;;;;;4869966;29;20254;-84
2024/04/10 09:14:04;;;;;;;6.60;2.37;;;15.70;99.90;;;;;;4841846;29;20258;-85
2024/04/10 09:17:33;;;;;;;5.40;2.90;;;16.00;99.90;;;;;;4870357;29;20596;-85
2024/04/10 09:20:56;;;;;;;6.37;2.67;;;16.70;99.90;;;;;;4878792;29;20336;-85
2024/04/10 09:23:25;;;;;;;4.73;2.90;;;16.40;99.90;;;;;;4859099;29;20261;-83
2024/04/10 09:25:54;;;;;;;5.57;3.57;;;16.20;99.90;;;;;;4879221;29;20302;-83
2024/04/10 09:29:06;;;;;;;8.27;3.90;;;16.40;99.90;;;;;;4875911;29;20259;-84
2024/04/10 09:33:00;;;;;;;5.83;2.87;;;16.30;99.90;;;;;;4880379;29;20304;-85
2024/04/10 09:39:36;;;;;;;9.07;2.77;;;14.80;99.90;;;;;;4865160;29;20251;-83
2024/04/10 09:42:36;;;;;;;8.23;4.47;;;13.70;99.90;;;;;;4862158;29;20699;-85
2024/04/10 09:45:26;;;;;;;6.23;3.57;;;13.10;99.90;;;;;;4871356;29;20253;-84
2024/04/10 09:48:11;;;;;;;4.70;2.60;;;13.30;99.90;;;;;;4880149;29;20710;-83
2024/04/10 09:54:06;;;;;;;7.10;4.13;;;13.80;99.90;;;;;;4848602;29;20746;-84
2024/04/10 09:57:19;;;;;;;8.67;4.07;;;14.10;99.90;;;;;;4875617;29;20257;-84
2024/04/10 09:59:51;;;;;;;8.50;3.80;;;14.20;99.90;;;;;;4865292;29;20881;-85
2024/04/10 10:02:17;;;;;;;7.70;3.93;;;14.20;99.90;;;;;;4879967;29;20261;-81
2024/04/10 10:04:46;;;;;;;7.60;4.20;;;14.50;99.90;;;;;;4885874;29;20368;-85
2024/04/10 10:07:22;;;;;;;7.23;4.53;;;14.90;99.90;;;;;;4887530;29;20254;-84
2024/04/10 10:09:50;;;;;;;5.10;3.00;;;15.50;99.90;;;;;;4890268;29;20368;-80
2024/04/10 10:12:24;;;;;;;9.83;4.30;;;16.10;99.90;;;;;;4884208;29;20769;-79
2024/04/10 10:14:53;;;;;;;6.77;2.43;;;16.80;99.90;;;;;;4873384;29;20287;-82
2024/04/10 10:17:26;;;;;;;6.17;3.60;;;17.20;99.90;;;;;;4898757;29;20736;-82
2024/04/10 10:19:55;;;;;;;5.70;3.30;;;17.60;99.90;;;;;;4893092;29;20258;-82
2024/04/10 10:22:24;;;;;;;7.33;2.87;;;17.70;99.90;;;;;;4913995;24;20293;-75
2024/04/10 10:24:59;;;;;;;5.80;2.80;;;17.50;99.90;;;;;;4888679;29;20617;-77
2024/04/10 10:27:25;;;;;;;3.93;2.23;;;16.80;99.90;;;;;;4887807;29;20831;-77
2024/04/10 10:30:06;;;;;;;6.20;3.70;;;16.50;99.90;;;;;;4883732;29;20283;-77
2024/04/10 10:32:32;;;;;;;7.60;3.30;;;16.20;99.90;;;;;;4879530;29;20255;-77
2024/04/10 10:35:08;;;;;;;6.23;3.67;;;16.20;99.90;;;;;;4863118;29;21202;-77
2024/04/10 10:37:36;;;;;;;7.70;3.70;;;16.50;99.90;;;;;;4860732;29;20260;-75
2024/04/10 10:40:06;;;;;;;8.50;4.47;;;16.50;99.90;;;;;;4855791;29;20254;-77
2024/04/10 10:42:32;;;;;;;5.07;4.00;;;16.40;99.90;;;;;;4868232;29;20249;-76
2024/04/10 10:45:07;;;;;;;5.07;3.77;;;15.50;99.90;;;;;;4872123;29;20312;-76
2024/04/10 10:47:38;;;;;;;5.53;3.20;;;15.50;99.90;;;;;;4858426;29;20243;-77
2024/04/10 10:50:07;;;;;;;7.20;3.30;;;15.70;99.90;;;;;;4870256;29;20257;-76
2024/04/10 10:52:36;;;;;;;4.93;2.83;;;15.70;99.90;;;;;;4865940;29;20253;-76
2024/04/10 10:55:07;;;;;;;7.13;2.90;;;15.80;99.90;;;;;;4870215;29;20289;-77
2024/04/10 10:57:33;;;;;;;6.13;3.07;;;16.00;99.90;;;;;;4855301;29;20293;-77
2024/04/10 11:00:02;;;;;;;7.13;3.13;;;16.00;99.90;;;;;;4855537;29;20742;-77
2024/04/10 11:02:27;;;;;;;9.33;2.47;;;15.90;99.90;;;;;;4868297;29;20308;-77
2024/04/10 11:04:57;;;;;;;4.23;2.53;;;15.70;99.90;;;;;;4870360;29;20256;-77
2024/04/10 11:07:24;;;;;;;5.60;2.43;;;15.70;99.90;;;;;;4868553;29;20258;-76
2024/04/10 11:09:55;;;;;;;4.67;2.43;;;15.90;99.90;;;;;;4870072;29;20757;-77
2024/04/10 11:12:21;;;;;;;5.17;2.43;;;15.70;99.90;;;;;;4862423;29;20318;-77
2024/04/10 11:14:49;;;;;;;4.70;2.40;;;15.50;99.90;;;;;;4855477;29;20260;-75
2024/04/10 11:17:19;;;;;;;6.60;2.60;;;15.70;99.90;;;;;;4867940;29;20352;-77
2024/04/10 11:19:49;;;;;;;7.00;2.63;;;16.00;99.90;;;;;;4870279;29;20368;-77
2024/04/10 11:22:16;;;;;;;8.93;3.37;;;16.10;99.90;;;;;;4858055;29;20431;-77
2024/04/10 11:24:45;;;;;;;8.07;2.60;;;16.20;99.90;;;;;;4869938;29;20855;-77
2024/04/10 11:27:15;;;;;;;5.53;3.23;;;16.30;99.90;;;;;;4869708;29;20257;-77
2024/04/10 11:29:43;;;;;;;4.80;2.57;;;16.10;99.90;;;;;;4869049;29;20271;-77
2024/04/10 11:32:09;;;;;;;5.43;3.20;;;15.90;99.90;;;;;;4863120;29;20254;-76
2024/04/10 11:34:37;;;;;;;6.77;4.20;;;15.90;99.90;;;;;;4858723;29;20298;-77
2024/04/10 11:37:04;;;;;;;7.67;4.13;;;15.80;99.90;;;;;;4857237;29;20253;-77
2024/04/10 11:39:33;;;;;;;5.27;3.20;;;15.60;99.90;;;;;;4869731;29;20247;-77
2024/04/10 11:41:58;;;;;;;5.77;2.73;;;15.20;99.90;;;;;;4870870;29;20251;-76
2024/04/10 11:44:29;;;;;;;3.20;2.30;;;15.00;99.90;;;;;;4868176;29;20317;-76
2024/04/10 11:46:55;;;;;;;6.30;3.43;;;14.60;99.90;;;;;;4867529;29;20254;-77
2024/04/10 11:49:25;;;;;;;7.97;4.37;;;14.30;99.90;;;;;;4869538;29;20250;-77
2024/04/10 11:51:50;;;;;;;6.07;3.70;;;14.00;99.90;;;;;;4861560;29;20258;-77
2024/04/10 11:54:19;;;;;;;4.70;3.83;;;13.80;99.90;;;;;;4867540;29;20926;-76
2024/04/10 11:56:45;;;;;;;5.43;3.57;;;13.80;99.90;;;;;;4855696;29;20296;-77
2024/04/10 11:59:14;;;;;;;6.93;3.90;;;13.80;99.90;;;;;;4865468;29;20680;-76
2024/04/10 12:01:42;;;;;;;4.37;2.97;;;13.80;99.90;;;;;;4861035;29;20368;-77
2024/04/10 12:04:10;;;;;;;5.57;3.60;;;13.70;99.90;;;;;;4867447;29;20375;-77
2024/04/10 12:06:36;;;;;;;5.37;3.53;;;13.70;99.90;;;;;;4870149;29;20253;-77
2024/04/10 12:09:05;;;;;;;5.27;3.60;;;13.90;99.90;;;;;;4869292;29;20306;-76
2024/04/10 12:11:31;;;;;;;4.83;4.27;;;13.70;99.90;;;;;;4870004;29;20247;-77
2024/04/10 12:14:00;;;;;;;4.40;3.87;;;13.80;99.90;;;;;;4874170;29;20270;-77
2024/04/10 12:16:26;;;;;;;3.87;3.40;;;13.70;99.90;;;;;;4867646;29;20296;-77
2024/04/10 12:18:57;;;;;;;5.10;3.40;;;13.80;99.90;;;;;;4846743;29;20732;-77
2024/04/10 12:21:23;;;;;;;4.97;3.40;;;14.00;99.90;;;;;;4858550;29;20768;-76
2024/04/10 12:23:51;;;;;;;4.27;3.30;;;14.10;99.90;;;;;;4857697;29;20297;-77
2024/04/10 12:26:18;;;;;;;3.03;2.60;;;14.20;99.90;;;;;;4866801;29;20258;-77
2024/04/10 12:28:47;;;;;;;3.60;2.60;;;14.50;99.90;;;;;;4871040;29;20252;-77
2024/04/10 12:31:13;;;;;;;3.50;2.20;;;15.00;99.90;;;;;;4879152;29;20257;-77
2024/04/10 12:33:42;;;;;;;4.13;2.10;;;15.40;99.90;;;;;;4872869;29;20308;-76
2024/04/10 12:38:57;;;;;;;3.20;2.90;;;16.00;99.90;;;;;;4861549;29;20331;-76
2024/04/10 12:41:25;;;;;;;6.27;2.80;;;16.10;99.30;;;;;;4875570;29;20254;-76
2024/04/10 12:43:55;;;;;;;6.43;3.90;;;15.90;98.70;;;;;;4876701;29;20305;-75
2024/04/10 12:46:27;;;;;;;5.30;3.60;;;15.50;97.90;;;;;;4868811;29;20250;-77
2024/04/10 12:48:52;;;;;;;7.60;4.00;;;15.30;98.40;;;;;;4867364;29;20434;-76
2024/04/10 12:51:23;;;;;;;6.57;3.80;;;15.10;99.40;;;;;;4869531;29;20303;-77
2024/04/10 12:53:49;;;;;;;8.07;3.60;;;15.00;99.20;;;;;;4859788;29;20255;-77
2024/04/10 12:56:18;;;;;;;4.90;3.13;;;14.80;99.90;;;;;;4855075;29;20297;-76
2024/04/10 12:58:44;;;;;;;7.17;3.93;;;14.70;99.50;;;;;;4877600;29;20289;-77
2024/04/10 13:01:12;;;;;;;6.60;2.70;;;14.40;99.00;;;;;;4867458;29;20597;-77
2024/04/10 13:03:38;;;;;;;4.67;2.63;;;14.00;99.60;;;;;;4860130;29;20309;-77
2024/04/10 13:06:07;;;;;;;5.20;3.13;;;13.90;99.80;;;;;;4859004;29;20275;-76
2024/04/10 13:08:35;;;;;;;4.03;2.50;;;13.80;99.90;;;;;;4850105;29;20719;-76
2024/04/10 13:11:09;;;;;;;7.87;3.97;;;13.70;99.90;;;;;;4862653;29;20261;-77
2024/04/10 13:13:35;;;;;;;6.10;4.20;;;13.50;99.90;;;;;;4850319;29;20255;-77
2024/04/10 13:16:04;;;;;;;6.83;4.93;;;13.30;99.90;;;;;;4867000;29;20257;-78
2024/04/10 13:18:30;;;;;;;7.87;5.47;;;13.10;99.80;;;;;;4888351;29;20261;-76